Time;durP1;ratioP1;P1;durP2;ratioP2;P2;SDS_P1;SDS_P2;PMS_P1;PMS_P2;Temp;Humidity;BMP_temperature;BMP_pressure;BME280_temperature;BME280_humidity;BME280_pressure;Samples;Min_cycle;Max_cycle;Signal;HPM_P1;HPM_P2
2022/08/23 00:00:47;;;;;;;5.20;1.90;;;20.40;81.20;;;;;;4327214;28;10000114;-76
2022/08/23 00:03:13;;;;;;;3.95;2.10;;;20.40;81.40;;;;;;5020434;28;20127;-75
2022/08/23 00:05:39;;;;;;;3.90;1.98;;;20.40;81.70;;;;;;5024805;28;20120;-75
2022/08/23 00:08:05;;;;;;;3.20;2.25;;;20.30;82.30;;;;;;5022583;28;20025;-75
2022/08/23 00:10:31;;;;;;;3.50;2.08;;;20.30;82.20;;;;;;5015839;28;20026;-75
2022/08/23 00:12:57;;;;;;;2.63;1.75;;;20.30;82.20;;;;;;5024424;28;20026;-76
2022/08/23 00:15:22;;;;;;;4.72;2.15;;;20.30;82.40;;;;;;5020742;28;20478;-75
2022/08/23 00:17:49;;;;;;;3.38;2.00;;;20.20;82.80;;;;;;5019259;28;20083;-75
2022/08/23 00:20:17;;;;;;;3.85;1.90;;;20.20;83.70;;;;;;5019459;28;20495;-76
2022/08/23 00:22:42;;;;;;;3.75;1.83;;;20.20;84.30;;;;;;5025220;28;20041;-75
2022/08/23 00:25:10;;;;;;;2.63;1.80;;;20.20;84.20;;;;;;5027303;28;20033;-75
2022/08/23 00:27:36;;;;;;;4.45;2.15;;;20.10;84.10;;;;;;5014338;28;20137;-75
2022/08/23 00:30:06;;;;;;;3.30;1.80;;;20.10;84.60;;;;;;5011520;28;20101;-75
2022/08/23 00:32:35;;;;;;;3.58;2.08;;;20.10;84.80;;;;;;5007193;28;20076;-75
2022/08/23 00:35:01;;;;;;;3.78;2.00;;;20.10;84.90;;;;;;5023644;28;20025;-75
2022/08/23 00:37:30;;;;;;;3.60;1.63;;;20.10;85.00;;;;;;5029646;28;20022;-75
2022/08/23 00:39:55;;;;;;;3.20;1.80;;;20.10;85.50;;;;;;5023371;28;20034;-75
2022/08/23 00:48:22;;;;;;;2.05;1.80;;;20.00;85.70;;;;;;5029045;28;20438;-75
2022/08/23 00:50:51;;;;;;;1.70;1.40;;;20.00;86.20;;;;;;5024225;28;20121;-75
2022/08/23 00:53:22;;;;;;;3.30;2.00;;;20.00;86.90;;;;;;5022551;28;20037;-75
2022/08/23 00:55:50;;;;;;;2.33;1.95;;;20.00;87.30;;;;;;5023967;28;20061;-76
2022/08/23 00:58:19;;;;;;;2.38;1.70;;;19.90;87.60;;;;;;5020748;28;20053;-75
2022/08/23 01:00:48;;;;;;;1.60;1.50;;;19.90;88.10;;;;;;5015935;28;20076;-75
2022/08/23 01:03:17;;;;;;;2.47;1.95;;;19.80;88.20;;;;;;5021131;28;20124;-75
2022/08/23 01:06:11;;;;;;;4.57;2.20;;;19.80;88.30;;;;;;5023051;28;20040;-75
2022/08/23 01:08:40;;;;;;;2.65;1.80;;;19.80;88.80;;;;;;5018500;28;20053;-75
2022/08/23 01:11:12;;;;;;;1.92;1.73;;;19.70;89.00;;;;;;5018795;28;20036;-75
2022/08/23 01:13:49;;;;;;;2.95;1.92;;;19.70;89.30;;;;;;5019052;28;20022;-75
2022/08/23 01:16:32;;;;;;;1.85;1.75;;;19.60;89.50;;;;;;5018922;28;20398;-75
2022/08/23 01:18:58;;;;;;;2.47;2.13;;;19.70;90.10;;;;;;5018990;28;20472;-76
2022/08/23 01:21:37;;;;;;;3.88;2.40;;;19.60;90.30;;;;;;5019800;28;20045;-76
2022/08/23 01:24:05;;;;;;;3.25;2.17;;;19.60;90.30;;;;;;5017313;28;20029;-75
2022/08/23 01:26:34;;;;;;;3.92;2.40;;;19.60;90.30;;;;;;5023570;28;20079;-75
2022/08/23 01:29:02;;;;;;;3.22;2.20;;;19.60;90.50;;;;;;5020431;28;20071;-75
2022/08/23 01:31:28;;;;;;;4.00;2.20;;;19.50;90.70;;;;;;5024352;28;20037;-75
2022/08/23 01:34:00;;;;;;;2.47;1.92;;;19.50;90.80;;;;;;5020612;28;20026;-75
2022/08/23 01:36:27;;;;;;;2.38;1.90;;;19.50;90.90;;;;;;5016324;28;20028;-76
2022/08/23 01:38:53;;;;;;;2.38;1.95;;;19.50;91.00;;;;;;5022659;28;20029;-75
2022/08/23 01:41:18;;;;;;;4.18;1.80;;;19.50;91.20;;;;;;5020326;28;20880;-75
2022/08/23 01:43:45;;;;;;;2.28;1.80;;;19.50;91.30;;;;;;5016158;28;20068;-75
2022/08/23 01:46:17;;;;;;;3.88;1.80;;;19.40;91.30;;;;;;5017834;28;20038;-76
2022/08/23 01:48:45;;;;;;;2.67;1.65;;;19.40;91.70;;;;;;5014662;28;20042;-75
2022/08/23 01:51:12;;;;;;;3.78;1.85;;;19.40;91.60;;;;;;5011581;28;20033;-75
2022/08/23 01:53:39;;;;;;;3.55;2.08;;;19.40;92.00;;;;;;5011596;28;20107;-75
2022/08/23 01:56:06;;;;;;;3.55;2.00;;;19.40;92.10;;;;;;5010238;28;20037;-75
2022/08/23 01:58:33;;;;;;;2.83;1.73;;;19.40;92.20;;;;;;5013813;28;20053;-75
2022/08/23 02:00:59;;;;;;;2.20;1.98;;;19.30;92.30;;;;;;5011125;28;20036;-75
2022/08/23 02:03:25;;;;;;;2.35;1.80;;;19.30;92.50;;;;;;5015763;28;20044;-75
2022/08/23 02:05:50;;;;;;;2.25;1.77;;;19.30;92.50;;;;;;5015004;28;20025;-75
2022/08/23 02:11:07;;;;;;;2.78;1.70;;;19.30;92.80;;;;;;5019005;28;20024;-76
2022/08/23 02:13:33;;;;;;;4.63;1.80;;;19.30;93.00;;;;;;5014839;28;20034;-75
2022/08/23 02:15:59;;;;;;;3.25;2.20;;;19.30;93.00;;;;;;5019828;28;20036;-75
2022/08/23 02:18:24;;;;;;;3.65;1.90;;;19.30;92.80;;;;;;5024000;28;20029;-75
2022/08/23 02:20:51;;;;;;;3.10;1.90;;;19.30;92.70;;;;;;5020595;28;20041;-76
2022/08/23 02:23:19;;;;;;;4.07;2.08;;;19.30;92.50;;;;;;5016039;28;20040;-75
2022/08/23 02:25:45;;;;;;;3.92;2.10;;;19.30;92.50;;;;;;5020073;28;20481;-75
2022/08/23 02:28:11;;;;;;;2.50;1.90;;;19.30;92.80;;;;;;5017717;28;20139;-75
2022/08/23 02:30:37;;;;;;;2.80;2.00;;;19.30;93.00;;;;;;5019404;28;20436;-76
2022/08/23 02:33:02;;;;;;;5.38;2.30;;;19.20;92.90;;;;;;5020284;28;20555;-75
2022/08/23 02:35:28;;;;;;;4.35;2.17;;;19.20;93.10;;;;;;5023979;28;20021;-75
2022/08/23 02:37:54;;;;;;;5.68;3.17;;;19.10;93.40;;;;;;5019413;28;20026;-75
2022/08/23 02:40:21;;;;;;;9.43;4.05;;;19.10;93.60;;;;;;5020736;28;20518;-75
2022/08/23 02:42:46;;;;;;;10.95;4.22;;;19.00;93.90;;;;;;5020639;28;20045;-75
2022/08/23 02:45:12;;;;;;;5.60;3.20;;;19.00;94.20;;;;;;5021568;28;20402;-75
2022/08/23 02:47:38;;;;;;;4.80;2.35;;;19.00;94.20;;;;;;5020013;28;20132;-75
2022/08/23 02:50:06;;;;;;;6.05;3.13;;;18.90;94.30;;;;;;5015777;28;20716;-75
2022/08/23 02:52:33;;;;;;;7.53;3.80;;;18.80;94.50;;;;;;5017494;28;20034;-75
2022/08/23 02:54:59;;;;;;;9.82;3.92;;;18.80;94.70;;;;;;5025140;28;20021;-75
2022/08/23 02:57:25;;;;;;;6.20;3.35;;;18.80;94.90;;;;;;5016268;28;20530;-75
2022/08/23 02:59:51;;;;;;;8.48;4.13;;;18.70;95.00;;;;;;5007932;28;20073;-75
2022/08/23 03:02:17;;;;;;;12.35;5.65;;;18.70;95.10;;;;;;5012658;28;20060;-75
2022/08/23 03:04:42;;;;;;;14.60;7.30;;;18.70;95.20;;;;;;5007768;28;20030;-75
2022/08/23 03:07:08;;;;;;;13.48;6.47;;;18.70;95.30;;;;;;5007501;28;20382;-75
2022/08/23 03:09:34;;;;;;;9.93;6.13;;;18.80;95.50;;;;;;5015109;28;20026;-75
2022/08/23 03:11:59;;;;;;;8.27;5.00;;;18.80;95.30;;;;;;5005417;28;20105;-75
2022/08/23 03:14:26;;;;;;;6.57;3.92;;;18.80;95.20;;;;;;5019512;28;20053;-75
2022/08/23 03:16:52;;;;;;;5.97;3.78;;;18.80;95.20;;;;;;5029589;28;20040;-75
2022/08/23 03:19:18;;;;;;;5.20;3.30;;;18.90;95.30;;;;;;5022140;28;20473;-75
2022/08/23 03:21:44;;;;;;;5.78;2.97;;;18.90;95.30;;;;;;5021804;28;20037;-75
2022/08/23 03:24:10;;;;;;;3.55;2.75;;;18.90;95.40;;;;;;5026680;28;20033;-74
2022/08/23 03:26:36;;;;;;;5.78;2.88;;;18.90;95.30;;;;;;5024987;28;20030;-75
2022/08/23 03:29:01;;;;;;;4.45;2.47;;;18.90;95.30;;;;;;5023101;28;20029;-76
2022/08/23 03:31:27;;;;;;;3.30;2.47;;;18.90;95.20;;;;;;5015130;28;20501;-75
2022/08/23 03:33:53;;;;;;;5.43;2.47;;;19.00;95.30;;;;;;5022263;28;20037;-74
2022/08/23 03:36:19;;;;;;;6.63;2.60;;;19.00;95.20;;;;;;5025919;28;20025;-75
2022/08/23 03:38:45;;;;;;;3.38;2.40;;;19.00;95.20;;;;;;5024579;28;20017;-75
2022/08/23 03:41:11;;;;;;;5.50;2.45;;;19.00;95.20;;;;;;5026374;28;20021;-76
2022/08/23 03:43:38;;;;;;;4.72;2.40;;;19.00;95.10;;;;;;5022091;28;20027;-75
2022/08/23 03:46:05;;;;;;;6.47;2.42;;;19.00;95.30;;;;;;5026733;28;20100;-75
2022/08/23 03:48:31;;;;;;;3.47;2.20;;;19.00;95.40;;;;;;5021326;28;20068;-75
2022/08/23 03:50:56;;;;;;;3.63;2.20;;;19.00;95.50;;;;;;5022951;28;20057;-75
2022/08/23 03:53:22;;;;;;;5.07;2.35;;;19.00;95.70;;;;;;5020792;28;20025;-75
2022/08/23 03:55:49;;;;;;;3.13;2.13;;;19.00;96.10;;;;;;5027217;28;20108;-75
2022/08/23 03:58:15;;;;;;;6.10;2.40;;;18.90;96.10;;;;;;5026868;28;20569;-75
2022/08/23 04:00:41;;;;;;;6.93;2.33;;;18.90;96.50;;;;;;5020785;28;20109;-76
2022/08/23 04:03:06;;;;;;;5.10;2.60;;;18.90;96.70;;;;;;5021916;28;20113;-76
2022/08/23 04:05:32;;;;;;;3.78;2.42;;;18.90;96.80;;;;;;5024313;28;20029;-76
2022/08/23 04:07:57;;;;;;;5.50;2.40;;;18.90;97.10;;;;;;5024183;28;20448;-75
2022/08/23 04:10:23;;;;;;;5.05;2.60;;;18.80;97.10;;;;;;5021578;28;20036;-75
2022/08/23 04:12:51;;;;;;;4.90;2.75;;;18.80;97.20;;;;;;5018246;28;20030;-75
2022/08/23 04:15:18;;;;;;;4.13;2.30;;;18.80;97.30;;;;;;5022971;28;20025;-75
2022/08/23 04:17:44;;;;;;;4.85;2.60;;;18.70;97.10;;;;;;5023566;28;20025;-75
2022/08/23 04:20:09;;;;;;;5.47;2.50;;;18.70;97.10;;;;;;5020467;28;20036;-75
2022/08/23 04:22:35;;;;;;;3.63;2.30;;;18.80;97.20;;;;;;5025075;28;20029;-75
2022/08/23 04:25:02;;;;;;;3.40;1.98;;;18.70;97.30;;;;;;5024113;28;20037;-75
2022/08/23 04:27:27;;;;;;;4.50;2.50;;;18.80;97.40;;;;;;5016154;28;20036;-75
2022/08/23 04:29:53;;;;;;;4.38;2.42;;;18.70;97.80;;;;;;5010396;28;20049;-75
2022/08/23 04:32:18;;;;;;;5.07;2.30;;;18.70;97.80;;;;;;5008464;28;20510;-75
2022/08/23 04:34:44;;;;;;;3.72;2.38;;;18.60;98.00;;;;;;5020524;28;20178;-75
2022/08/23 04:37:10;;;;;;;4.60;2.33;;;18.60;98.40;;;;;;5029430;28;20033;-75
2022/08/23 04:42:22;;;;;;;6.82;2.40;;;18.50;98.80;;;;;;5029243;28;20082;-74
2022/08/23 04:44:48;;;;;;;3.58;2.40;;;18.50;98.80;;;;;;5012682;28;20026;-74
2022/08/23 04:47:14;;;;;;;6.30;2.78;;;18.50;99.00;;;;;;5010908;28;20444;-75
2022/08/23 04:49:40;;;;;;;3.75;2.50;;;18.50;99.00;;;;;;5017108;28;20033;-75
2022/08/23 04:52:05;;;;;;;4.47;2.30;;;18.50;99.10;;;;;;5023198;28;20037;-75
2022/08/23 04:54:31;;;;;;;6.03;2.53;;;18.50;99.00;;;;;;5020174;28;20033;-74
2022/08/23 04:56:56;;;;;;;4.53;2.38;;;18.50;99.10;;;;;;5023807;28;20033;-75
2022/08/23 04:59:22;;;;;;;4.13;2.83;;;18.50;99.10;;;;;;5021354;28;20050;-75
2022/08/23 05:01:49;;;;;;;3.83;2.30;;;18.50;99.30;;;;;;5017830;28;20018;-75
2022/08/23 05:04:15;;;;;;;7.10;2.95;;;18.50;99.40;;;;;;5018164;28;20029;-76
2022/08/23 05:06:41;;;;;;;5.28;2.67;;;18.50;99.40;;;;;;5025280;28;20555;-75
2022/08/23 05:09:07;;;;;;;5.00;2.53;;;18.50;99.50;;;;;;5021026;28;20033;-75
2022/08/23 05:11:32;;;;;;;5.32;2.53;;;18.50;99.40;;;;;;5020827;28;20095;-75
2022/08/23 05:13:58;;;;;;;4.65;2.20;;;18.50;99.50;;;;;;5021493;28;20393;-75
2022/08/23 05:16:24;;;;;;;5.65;2.38;;;18.50;99.50;;;;;;5024899;28;20029;-75
2022/08/23 05:18:49;;;;;;;6.30;2.70;;;18.50;99.70;;;;;;5019988;28;20026;-75
2022/08/23 05:21:18;;;;;;;7.13;2.33;;;18.50;99.90;;;;;;5015267;28;20043;-75
2022/08/23 05:23:44;;;;;;;5.85;2.55;;;18.50;99.90;;;;;;5022642;28;20116;-75
2022/08/23 05:26:11;;;;;;;8.95;2.50;;;18.50;99.90;;;;;;5021308;28;20605;-75
2022/08/23 05:28:41;;;;;;;4.57;2.60;;;18.60;99.90;;;;;;5021289;28;20087;-75
2022/08/23 05:31:10;;;;;;;6.03;2.60;;;18.50;99.90;;;;;;5018238;28;20045;-75
2022/08/23 05:33:36;;;;;;;5.40;2.58;;;18.50;99.90;;;;;;5016470;28;20025;-75
2022/08/23 05:36:03;;;;;;;4.68;2.63;;;18.50;99.90;;;;;;5018296;28;20084;-75
2022/08/23 05:38:29;;;;;;;5.60;2.92;;;18.50;99.90;;;;;;5021223;28;20109;-75
2022/08/23 05:40:56;;;;;;;5.43;2.42;;;18.60;99.90;;;;;;5021800;28;20112;-75
2022/08/23 05:43:23;;;;;;;4.88;2.83;;;18.60;99.90;;;;;;5026091;28;20448;-75
2022/08/23 05:46:03;;;;;;;4.78;2.70;;;18.60;99.90;;;;;;5018441;28;20026;-75
2022/08/23 05:48:30;;;;;;;4.55;2.35;;;18.60;99.90;;;;;;5018393;28;20036;-75
2022/08/23 05:50:56;;;;;;;4.57;2.38;;;18.60;99.90;;;;;;5021503;28;20033;-75
2022/08/23 05:53:22;;;;;;;4.38;2.42;;;18.60;99.90;;;;;;5019500;28;20068;-75
2022/08/23 05:55:48;;;;;;;4.03;2.55;;;18.60;99.90;;;;;;5019985;28;20107;-75
2022/08/23 05:58:14;;;;;;;9.18;2.75;;;18.60;99.90;;;;;;5013997;28;20065;-76
2022/08/23 06:00:39;;;;;;;3.92;2.30;;;18.60;99.90;;;;;;5017278;28;20099;-75
2022/08/23 06:03:05;;;;;;;4.97;2.53;;;18.60;99.90;;;;;;5011376;28;20091;-75
2022/08/23 06:05:30;;;;;;;5.65;2.80;;;18.60;99.90;;;;;;5009501;28;20034;-75
2022/08/23 06:07:59;;;;;;;5.78;2.60;;;18.60;99.90;;;;;;5015200;28;20083;-76
2022/08/23 06:10:24;;;;;;;3.53;2.58;;;18.60;99.90;;;;;;5007995;28;20026;-76
2022/08/23 06:12:50;;;;;;;4.07;2.40;;;18.60;99.90;;;;;;5004713;28;20036;-75
2022/08/23 06:15:16;;;;;;;3.83;2.38;;;18.60;99.90;;;;;;5008047;28;22113;-76
2022/08/23 06:17:41;;;;;;;4.10;2.50;;;18.70;99.90;;;;;;5022566;28;20402;-75
2022/08/23 06:20:09;;;;;;;3.50;2.30;;;18.70;99.90;;;;;;5015128;28;20500;-75
2022/08/23 06:22:34;;;;;;;3.63;2.30;;;18.70;99.90;;;;;;5017774;28;20120;-75
2022/08/23 06:25:00;;;;;;;3.95;2.25;;;18.70;99.90;;;;;;5015259;28;20138;-75
2022/08/23 06:27:25;;;;;;;4.05;2.53;;;18.80;99.90;;;;;;5022156;28;20064;-75
2022/08/23 06:29:51;;;;;;;3.88;2.20;;;18.90;99.90;;;;;;5021599;28;20056;-76
2022/08/23 06:32:16;;;;;;;5.47;2.33;;;18.90;99.90;;;;;;5016051;28;20041;-75
2022/08/23 06:34:42;;;;;;;3.33;2.53;;;19.00;99.90;;;;;;5014512;28;20030;-75
2022/08/23 06:37:10;;;;;;;4.30;2.33;;;19.00;99.90;;;;;;5019757;28;20030;-75
2022/08/23 06:39:37;;;;;;;2.85;2.10;;;19.00;99.90;;;;;;5019088;28;20124;-75
2022/08/23 06:42:07;;;;;;;3.90;2.33;;;19.10;99.90;;;;;;5009285;28;20080;-75
2022/08/23 06:44:33;;;;;;;2.72;2.00;;;19.20;99.90;;;;;;5020107;28;20520;-75
2022/08/23 06:46:59;;;;;;;6.07;2.20;;;19.30;99.90;;;;;;5020405;28;20044;-75
2022/08/23 06:49:26;;;;;;;6.43;2.50;;;19.50;99.90;;;;;;5030703;28;20067;-75
2022/08/23 06:51:55;;;;;;;5.55;2.53;;;19.60;99.90;;;;;;5035954;28;20548;-74
2022/08/23 06:54:25;;;;;;;9.05;2.38;;;19.80;99.60;;;;;;5015127;28;20476;-75
2022/08/23 06:56:52;;;;;;;4.40;2.40;;;20.00;99.30;;;;;;5019527;28;20025;-75
2022/08/23 06:59:19;;;;;;;3.72;2.22;;;20.20;99.10;;;;;;5023370;28;20125;-75
2022/08/23 07:02:06;;;;;;;7.25;2.40;;;20.50;98.90;;;;;;5018825;28;20337;-75
2022/08/23 07:04:35;;;;;;;6.65;2.35;;;20.70;97.90;;;;;;5018697;28;20127;-75
2022/08/23 07:07:01;;;;;;;5.20;2.30;;;20.90;97.30;;;;;;5016664;28;20394;-75
2022/08/23 07:09:27;;;;;;;4.75;2.28;;;21.20;96.50;;;;;;5011520;28;20026;-75
2022/08/23 07:11:54;;;;;;;3.55;2.10;;;21.40;96.00;;;;;;5008544;28;20030;-75
2022/08/23 07:14:21;;;;;;;6.80;2.30;;;21.60;95.80;;;;;;5013371;28;20109;-75
2022/08/23 07:16:50;;;;;;;4.22;2.08;;;21.80;94.80;;;;;;5014788;28;20372;-75
2022/08/23 07:19:23;;;;;;;3.90;2.25;;;22.00;94.20;;;;;;5005434;28;20034;-75
2022/08/23 07:21:49;;;;;;;3.80;2.00;;;22.20;94.50;;;;;;5020622;28;20030;-76
2022/08/23 07:24:16;;;;;;;3.67;1.90;;;22.40;93.90;;;;;;5017041;28;20117;-75
2022/08/23 07:26:44;;;;;;;4.32;2.40;;;22.60;93.70;;;;;;5007350;28;20033;-77
2022/08/23 07:29:11;;;;;;;5.20;2.25;;;22.80;92.50;;;;;;5015757;28;20134;-76
2022/08/23 07:31:43;;;;;;;3.95;2.28;;;22.90;91.50;;;;;;5021240;28;20029;-76
2022/08/23 07:34:09;;;;;;;4.25;1.98;;;22.90;91.70;;;;;;5014899;28;20409;-75
2022/08/23 07:36:36;;;;;;;6.40;2.22;;;22.90;91.20;;;;;;5025153;28;20025;-75
2022/08/23 07:39:04;;;;;;;4.10;1.70;;;23.00;91.20;;;;;;5024975;28;20812;-76
2022/08/23 07:41:31;;;;;;;2.97;2.00;;;23.20;90.70;;;;;;5011446;28;20513;-76
2022/08/23 07:44:02;;;;;;;5.60;2.00;;;23.30;89.60;;;;;;5020584;28;20029;-74
2022/08/23 07:46:29;;;;;;;5.22;2.10;;;23.40;89.50;;;;;;5020057;28;20026;-75
2022/08/23 07:48:59;;;;;;;3.15;1.80;;;23.50;88.60;;;;;;5012083;28;20036;-74
2022/08/23 07:51:27;;;;;;;6.55;2.60;;;23.60;88.00;;;;;;5007542;28;20025;-75
2022/08/23 07:53:52;;;;;;;3.47;1.83;;;23.70;87.30;;;;;;5002963;28;20101;-75
2022/08/23 07:56:19;;;;;;;5.43;2.20;;;23.80;86.30;;;;;;5006510;28;20113;-75
2022/08/23 07:58:45;;;;;;;5.80;2.20;;;23.90;85.70;;;;;;5023932;28;20405;-74
2022/08/23 08:01:16;;;;;;;8.35;2.20;;;24.00;83.20;;;;;;5013736;28;20029;-76
2022/08/23 08:03:43;;;;;;;7.90;1.95;;;24.10;82.90;;;;;;5017084;28;20028;-75
2022/08/23 08:06:11;;;;;;;5.85;2.30;;;24.20;82.50;;;;;;5028684;28;20148;-74
2022/08/23 08:08:39;;;;;;;5.30;2.25;;;24.40;79.60;;;;;;5016117;28;20026;-75
2022/08/23 08:11:06;;;;;;;4.18;1.95;;;24.40;79.50;;;;;;5012595;28;20025;-75
2022/08/23 08:13:32;;;;;;;5.93;2.38;;;24.40;79.70;;;;;;5029466;28;20544;-74
2022/08/23 08:15:58;;;;;;;3.72;1.90;;;24.40;80.00;;;;;;5027732;28;20025;-75
2022/08/23 08:18:24;;;;;;;3.83;1.98;;;24.30;80.30;;;;;;5011665;28;20135;-75
2022/08/23 08:20:50;;;;;;;3.28;1.75;;;24.40;79.40;;;;;;5022162;28;20034;-74
2022/08/23 08:23:16;;;;;;;4.32;1.77;;;24.40;78.40;;;;;;5012729;28;20459;-75
2022/08/23 08:25:42;;;;;;;3.10;1.83;;;24.20;77.40;;;;;;5018993;28;20034;-74
2022/08/23 08:28:08;;;;;;;5.50;1.70;;;24.10;78.60;;;;;;5023046;28;20676;-75
2022/08/23 08:30:33;;;;;;;4.07;1.70;;;24.10;78.30;;;;;;5025773;28;20053;-74
2022/08/23 08:32:59;;;;;;;3.50;1.75;;;24.10;78.30;;;;;;5017586;28;20082;-74
2022/08/23 08:35:24;;;;;;;4.72;1.90;;;24.10;78.30;;;;;;5022185;28;20033;-75
2022/08/23 08:37:50;;;;;;;2.65;1.70;;;24.10;78.10;;;;;;5014865;28;20061;-73
2022/08/23 08:40:23;;;;;;;3.97;1.90;;;24.20;79.50;;;;;;5022591;28;20038;-74
2022/08/23 08:43:01;;;;;;;3.67;1.60;;;24.30;77.00;;;;;;5022500;28;20486;-73
2022/08/23 08:45:37;;;;;;;3.10;1.55;;;24.30;77.00;;;;;;5029614;28;20029;-74
2022/08/23 08:48:09;;;;;;;3.75;1.77;;;24.30;77.90;;;;;;5029248;28;20128;-73
2022/08/23 08:50:38;;;;;;;4.60;1.75;;;24.30;77.90;;;;;;5010441;28;20037;-74
2022/08/23 08:53:16;;;;;;;3.20;1.42;;;24.40;76.90;;;;;;5018899;28;20053;-74
2022/08/23 08:55:47;;;;;;;5.25;1.80;;;24.60;76.60;;;;;;5024797;28;20022;-74
2022/08/23 08:58:41;;;;;;;3.25;1.52;;;24.90;76.50;;;;;;5026453;28;20041;-74
2022/08/23 09:01:07;;;;;;;3.25;1.45;;;25.20;75.80;;;;;;5008008;28;20022;-74
2022/08/23 09:03:34;;;;;;;5.43;1.80;;;25.40;75.70;;;;;;5014757;28;20041;-74
2022/08/23 09:06:15;;;;;;;3.80;1.70;;;25.60;75.30;;;;;;5017558;28;20813;-74
2022/08/23 09:09:18;;;;;;;4.28;1.63;;;25.70;72.50;;;;;;5017229;28;20060;-74
2022/08/23 09:11:52;;;;;;;3.13;1.60;;;25.80;71.30;;;;;;4983898;28;20406;-74
2022/08/23 09:14:42;;;;;;;5.75;1.90;;;25.80;70.90;;;;;;5015694;28;20666;-75
2022/08/23 09:17:54;;;;;;;3.33;1.50;;;25.90;71.60;;;;;;5010637;28;20053;-75
2022/08/23 09:20:22;;;;;;;6.97;1.80;;;26.00;71.30;;;;;;5012946;28;20120;-74
2022/08/23 09:23:10;;;;;;;2.35;1.60;;;26.10;68.40;;;;;;5020222;28;20273;-74
2022/08/23 09:25:36;;;;;;;3.40;1.60;;;26.20;68.60;;;;;;5008531;28;20112;-74
2022/08/23 09:28:02;;;;;;;3.22;1.40;;;26.30;67.70;;;;;;5017951;28;20074;-75
2022/08/23 09:30:50;;;;;;;3.35;1.70;;;26.30;66.90;;;;;;5011863;28;20033;-74
2022/08/23 09:33:19;;;;;;;2.47;1.40;;;26.30;66.30;;;;;;5015317;28;20066;-74
2022/08/23 09:36:03;;;;;;;4.20;1.55;;;26.30;67.60;;;;;;5009073;28;20462;-74
2022/08/23 09:38:29;;;;;;;6.88;1.50;;;26.40;66.60;;;;;;5023173;28;20490;-74
2022/08/23 09:40:55;;;;;;;4.90;1.40;;;26.60;67.10;;;;;;5020741;28;20026;-74
2022/08/23 09:43:25;;;;;;;5.10;1.40;;;26.70;67.30;;;;;;5021408;28;20833;-74
2022/08/23 09:45:50;;;;;;;2.90;1.50;;;26.90;66.60;;;;;;5029604;28;20414;-74
2022/08/23 09:48:39;;;;;;;2.72;1.40;;;27.00;65.90;;;;;;5018924;28;20109;-74
2022/08/23 09:51:21;;;;;;;2.95;1.50;;;27.10;64.90;;;;;;5024604;28;20025;-74
2022/08/23 09:54:03;;;;;;;4.38;1.50;;;27.20;64.20;;;;;;5019460;28;20520;-74
2022/08/23 09:56:32;;;;;;;5.03;1.80;;;27.20;62.80;;;;;;5016843;28;20029;-74
2022/08/23 09:58:58;;;;;;;5.50;1.48;;;27.10;62.40;;;;;;5023274;28;20095;-74
2022/08/23 10:01:26;;;;;;;5.53;1.55;;;27.10;63.30;;;;;;5022916;28;20027;-74
2022/08/23 10:04:35;;;;;;;6.05;1.30;;;27.20;63.50;;;;;;5024116;28;20087;-74
2022/08/23 10:07:19;;;;;;;4.28;1.60;;;27.30;63.30;;;;;;5005372;28;20041;-74
2022/08/23 10:09:44;;;;;;;2.95;1.40;;;27.50;63.20;;;;;;5026527;28;20033;-74
2022/08/23 10:12:10;;;;;;;5.85;1.60;;;27.50;60.40;;;;;;5025743;28;20028;-74
2022/08/23 10:14:36;;;;;;;4.22;1.73;;;27.60;59.90;;;;;;5024978;28;20034;-74
2022/08/23 10:17:19;;;;;;;3.42;1.30;;;27.70;58.70;;;;;;5021885;28;20040;-74
2022/08/23 10:19:51;;;;;;;2.55;1.40;;;27.90;59.60;;;;;;5014613;28;20485;-74
2022/08/23 10:22:21;;;;;;;3.17;1.48;;;28.00;59.70;;;;;;5010182;28;20124;-75
2022/08/23 10:25:10;;;;;;;5.88;1.60;;;28.10;59.10;;;;;;5011139;28;20172;-74
2022/08/23 10:30:58;;;;;;;2.90;1.42;;;28.20;59.30;;;;;;5022300;28;20063;-76
2022/08/23 10:33:45;;;;;;;3.88;1.38;;;28.30;58.80;;;;;;5010993;28;20034;-75
2022/08/23 10:36:27;;;;;;;4.25;1.35;;;28.40;59.50;;;;;;5021902;28;20095;-75
2022/08/23 10:38:57;;;;;;;7.47;1.52;;;28.30;56.30;;;;;;5014355;28;20026;-75
2022/08/23 10:41:53;;;;;;;4.25;1.42;;;28.40;57.50;;;;;;5018101;28;20025;-74
2022/08/23 10:44:24;;;;;;;4.85;1.50;;;28.50;56.50;;;;;;5025616;28;20032;-74
2022/08/23 10:47:18;;;;;;;3.58;1.27;;;28.50;57.00;;;;;;5024582;28;20120;-75
2022/08/23 10:49:49;;;;;;;5.75;1.25;;;28.60;56.30;;;;;;5013417;28;20029;-74
2022/08/23 10:52:22;;;;;;;3.28;1.30;;;28.70;56.00;;;;;;5018746;28;20132;-74
2022/08/23 10:55:04;;;;;;;2.47;1.40;;;28.80;56.30;;;;;;5019171;28;20075;-74
2022/08/23 10:57:36;;;;;;;4.32;1.40;;;29.00;55.70;;;;;;5022243;28;20033;-73
2022/08/23 11:00:21;;;;;;;2.43;1.33;;;29.00;55.00;;;;;;5024820;28;20037;-74
2022/08/23 11:03:02;;;;;;;3.50;1.30;;;29.10;56.00;;;;;;5016041;28;20037;-75
2022/08/23 11:05:31;;;;;;;5.40;1.40;;;29.00;55.30;;;;;;5016631;28;20026;-75
2022/08/23 11:08:06;;;;;;;3.92;1.20;;;29.10;55.80;;;;;;5024510;28;20025;-75
2022/08/23 11:10:40;;;;;;;4.47;1.33;;;29.30;55.10;;;;;;5006603;28;20026;-75
2022/08/23 11:13:20;;;;;;;3.70;1.60;;;29.40;55.20;;;;;;5009110;28;20041;-75
2022/08/23 11:15:55;;;;;;;2.88;1.33;;;29.60;54.30;;;;;;5021681;28;20389;-74
2022/08/23 11:18:32;;;;;;;2.80;1.38;;;29.60;53.80;;;;;;5026460;28;20500;-74
2022/08/23 11:21:24;;;;;;;3.28;1.30;;;29.70;52.90;;;;;;4319538;28;10001429;-75
2022/08/23 11:23:54;;;;;;;3.83;1.30;;;29.70;54.10;;;;;;5017034;28;20064;-74
2022/08/23 11:26:25;;;;;;;2.42;1.30;;;29.70;53.80;;;;;;5039141;28;20069;-75
2022/08/23 11:28:55;;;;;;;5.15;1.58;;;29.80;54.10;;;;;;5030574;28;20017;-75
2022/08/23 11:31:33;;;;;;;3.72;1.70;;;29.80;51.40;;;;;;5029149;28;20068;-75
2022/08/23 11:34:09;;;;;;;3.33;1.52;;;29.70;51.80;;;;;;5035363;28;20169;-75
2022/08/23 11:36:36;;;;;;;2.53;1.40;;;29.70;52.10;;;;;;5030675;28;20048;-75
2022/08/23 11:39:10;;;;;;;4.03;1.27;;;29.70;52.60;;;;;;5032333;28;20025;-74
2022/08/23 11:42:00;;;;;;;1.85;1.20;;;29.80;51.30;;;;;;5032554;28;20033;-76
2022/08/23 11:44:39;;;;;;;2.75;1.35;;;29.80;52.80;;;;;;5036533;28;20041;-74
2022/08/23 11:47:08;;;;;;;4.07;1.40;;;29.70;53.20;;;;;;5034596;28;20025;-74
2022/08/23 11:50:07;;;;;;;2.30;1.25;;;29.70;52.50;;;;;;5030348;28;20588;-75
2022/08/23 11:53:02;;;;;;;2.65;1.13;;;29.80;52.30;;;;;;5027575;28;20716;-75
2022/08/23 11:55:34;;;;;;;3.42;1.30;;;29.90;50.90;;;;;;5007712;28;20036;-75
2022/08/23 11:58:18;;;;;;;2.58;1.52;;;30.00;51.30;;;;;;5015431;28;20386;-75
2022/08/23 12:01:07;;;;;;;3.15;1.40;;;30.10;51.20;;;;;;5020866;28;20659;-75
2022/08/23 12:03:50;;;;;;;1.73;1.05;;;30.10;52.00;;;;;;5021566;28;21135;-75
2022/08/23 12:06:18;;;;;;;2.83;1.50;;;30.20;51.50;;;;;;5021301;28;20104;-73
2022/08/23 12:08:55;;;;;;;3.70;1.40;;;30.20;50.70;;;;;;5023490;28;20029;-75
2022/08/23 12:11:23;;;;;;;3.75;1.50;;;30.10;50.10;;;;;;5012346;28;20584;-75
2022/08/23 12:14:30;;;;;;;3.22;1.50;;;30.00;50.20;;;;;;5016528;28;20029;-75
2022/08/23 12:17:04;;;;;;;2.15;1.40;;;30.10;50.70;;;;;;5024150;28;20030;-75
2022/08/23 12:19:50;;;;;;;2.67;1.48;;;30.20;50.80;;;;;;5020189;28;20123;-75
2022/08/23 12:22:57;;;;;;;2.17;1.40;;;30.30;51.40;;;;;;5012044;28;20313;-74
2022/08/23 12:25:28;;;;;;;3.95;1.58;;;30.30;50.30;;;;;;5023601;28;20029;-74
2022/08/23 12:28:02;;;;;;;2.20;1.33;;;30.30;49.40;;;;;;5018612;28;20038;-75
2022/08/23 12:30:40;;;;;;;3.13;1.13;;;30.20;49.50;;;;;;5017267;28;20033;-77
2022/08/23 12:33:12;;;;;;;3.25;1.38;;;30.20;50.00;;;;;;5018438;28;20030;-76
2022/08/23 12:35:57;;;;;;;2.05;1.48;;;30.20;49.90;;;;;;5014991;28;20080;-76
2022/08/23 12:39:00;;;;;;;3.28;1.48;;;30.30;48.70;;;;;;5017787;28;20029;-76
2022/08/23 12:41:32;;;;;;;2.53;1.40;;;30.40;50.00;;;;;;5016559;28;20030;-77
2022/08/23 12:44:06;;;;;;;4.13;1.33;;;30.50;49.60;;;;;;5019412;28;20033;-76
2022/08/23 12:46:39;;;;;;;3.58;1.60;;;30.60;49.60;;;;;;5022961;28;20108;-76
2022/08/23 12:49:06;;;;;;;;;;;30.60;49.20;;;;;;5021478;28;20032;-77
2022/08/23 12:51:38;;;;;;;3.05;1.50;;;30.60;48.60;;;;;;5017801;28;19913;-76
2022/08/23 12:54:15;;;;;;;3.13;1.60;;;30.60;49.30;;;;;;5019559;28;20032;-77
2022/08/23 12:56:46;;;;;;;1.70;1.40;;;30.80;49.30;;;;;;5021330;28;20025;-77
2022/08/23 12:59:33;;;;;;;2.72;1.60;;;30.90;48.30;;;;;;5021596;28;20071;-76
2022/08/23 13:02:06;;;;;;;3.67;1.75;;;30.90;47.50;;;;;;5012885;28;20053;-76
2022/08/23 13:04:33;;;;;;;2.40;1.50;;;31.00;48.00;;;;;;5019979;28;20079;-77
2022/08/23 13:07:04;;;;;;;4.70;1.60;;;31.00;48.00;;;;;;5023944;28;20478;-77
2022/08/23 13:09:39;;;;;;;2.92;1.50;;;31.10;48.20;;;;;;5020575;28;20044;-77
2022/08/23 13:12:07;;;;;;;4.20;1.73;;;31.00;48.10;;;;;;5015294;28;20069;-77
2022/08/23 13:14:34;;;;;;;3.72;1.50;;;30.90;47.30;;;;;;5014838;28;20033;-76
2022/08/23 13:17:26;;;;;;;4.07;1.52;;;30.90;47.90;;;;;;5011634;28;20026;-76
2022/08/23 13:20:10;;;;;;;3.85;1.60;;;31.00;48.20;;;;;;5024146;28;20109;-76